Time;durP1;ratioP1;P1;durP2;ratioP2;P2;SDS_P1;SDS_P2;PMS_P1;PMS_P2;Temp;Humidity;BMP_temperature;BMP_pressure;BME280_temperature;BME280_humidity;BME280_pressure;Samples;Min_cycle;Max_cycle;Signal;HPM_P1;HPM_P2
2022/04/06 00:00:19;;;;;;;9.10;1.77;;;;;;;14.41;57.74;99516.53;4992825;28;20477;-83
2022/04/06 00:02:46;;;;;;;12.40;1.95;;;;;;;14.57;57.41;99507.94;4993061;28;20026;-83
2022/04/06 00:05:13;;;;;;;8.65;1.25;;;;;;;14.78;56.82;99493.59;4992936;28;20072;-83
2022/04/06 00:07:42;;;;;;;9.07;1.20;;;;;;;14.83;57.13;99499.25;4974777;28;20034;-83
2022/04/06 00:10:10;;;;;;;10.00;1.15;;;;;;;14.89;56.92;99493.38;4971976;28;20034;-83
2022/04/06 00:12:37;;;;;;;12.02;1.67;;;;;;;14.66;57.35;99485.91;4973324;28;20026;-83
2022/04/06 00:15:04;;;;;;;16.25;3.85;;;;;;;14.61;58.01;99485.56;4973128;28;20045;-83
2022/04/06 00:17:30;;;;;;;14.15;2.58;;;;;;;14.71;57.65;99474.06;4973256;28;20026;-83
2022/04/06 00:19:55;;;;;;;9.70;1.55;;;;;;;14.90;57.36;99475.69;4973445;28;20358;-83
2022/04/06 00:22:21;;;;;;;10.05;2.05;;;;;;;14.87;57.51;99475.00;4988013;28;20117;-83
2022/04/06 00:24:47;;;;;;;11.93;1.38;;;;;;;14.81;57.96;99464.22;4992247;28;20026;-83
2022/04/06 00:27:13;;;;;;;11.10;2.70;;;;;;;14.86;57.83;99467.22;4992722;28;20101;-84
2022/04/06 00:29:38;;;;;;;16.65;1.63;;;;;;;14.78;58.95;99456.59;4992461;28;20503;-84
2022/04/06 00:32:04;;;;;;;10.52;1.73;;;;;;;14.84;58.30;99448.88;4991083;28;20527;-84
2022/04/06 00:37:13;;;;;;;12.25;1.77;;;;;;;14.63;59.47;99440.47;4991447;28;20145;-84
2022/04/06 00:39:39;;;;;;;9.02;1.65;;;;;;;14.70;59.17;99436.25;4992343;28;20116;-84
2022/04/06 00:42:05;;;;;;;8.23;2.20;;;;;;;14.76;59.19;99434.78;4992570;28;20054;-84
2022/04/06 00:44:34;;;;;;;8.45;1.85;;;;;;;14.67;59.25;99426.81;4992693;28;20026;-84
2022/04/06 00:47:01;;;;;;;10.18;1.55;;;;;;;14.59;60.02;99416.19;4992559;28;20030;-84
2022/04/06 00:49:26;;;;;;;13.75;1.58;;;;;;;14.55;60.12;99412.16;4992342;28;20042;-84
2022/04/06 00:51:52;;;;;;;7.95;1.50;;;;;;;14.71;59.85;99408.00;4989802;28;20036;-84
2022/04/06 00:54:21;;;;;;;11.65;1.50;;;;;;;14.82;59.40;99403.28;4992286;28;20018;-84
2022/04/06 00:56:47;;;;;;;8.90;1.63;;;;;;;14.41;60.94;99399.50;4992156;28;20057;-84
2022/04/06 00:59:15;;;;;;;7.50;1.30;;;;;;;14.59;60.26;99400.34;4992112;28;20023;-84
2022/04/06 01:01:41;;;;;;;11.25;1.65;;;;;;;14.52;60.11;99387.88;4990848;28;20030;-84
2022/04/06 01:04:06;;;;;;;6.15;1.38;;;;;;;14.58;60.09;99390.75;4992278;28;20400;-84
2022/04/06 01:06:31;;;;;;;11.55;2.08;;;;;;;14.29;61.19;99377.78;4979127;28;20035;-84
2022/04/06 01:08:58;;;;;;;10.93;1.65;;;;;;;14.34;60.88;99387.91;4972726;28;20031;-83
2022/04/06 01:11:24;;;;;;;7.93;1.80;;;;;;;14.22;61.87;99377.59;4972599;28;20038;-84
2022/04/06 01:13:51;;;;;;;13.75;1.80;;;;;;;14.25;62.01;99379.91;4972739;28;20046;-84
2022/04/06 01:16:17;;;;;;;10.10;2.35;;;;;;;14.38;62.39;99381.34;4975080;28;20030;-84
2022/04/06 01:18:42;;;;;;;6.88;1.63;;;;;;;14.36;62.16;99376.22;4976375;28;20030;-84
2022/04/06 01:21:11;;;;;;;8.43;2.15;;;;;;;14.51;61.77;99367.72;4977152;28;20043;-84
2022/04/06 01:23:36;;;;;;;9.93;2.72;;;;;;;14.18;62.30;99363.03;4976258;28;20496;-84
2022/04/06 01:26:02;;;;;;;5.88;1.30;;;;;;;14.49;61.99;99359.94;4976404;28;20026;-84
2022/04/06 01:28:27;;;;;;;9.70;1.67;;;;;;;14.50;61.94;99351.06;4976301;28;20026;-84
2022/04/06 01:30:53;;;;;;;14.25;1.95;;;;;;;14.44;62.31;99356.94;4974716;28;20023;-84
2022/04/06 01:33:18;;;;;;;12.32;3.17;;;;;;;14.32;62.83;99353.72;4976068;28;20089;-84
2022/04/06 01:35:43;;;;;;;12.15;1.98;;;;;;;14.36;62.47;99341.88;4978187;28;20026;-84
2022/04/06 01:38:09;;;;;;;11.90;1.50;;;;;;;14.43;62.59;99339.44;4995369;28;20476;-84
2022/04/06 01:40:35;;;;;;;8.27;1.88;;;;;;;14.31;62.94;99330.94;4995513;28;20447;-85
2022/04/06 01:43:01;;;;;;;10.07;1.52;;;;;;;14.37;62.72;99334.78;4995332;28;20031;-84
2022/04/06 01:45:27;;;;;;;7.32;1.55;;;;;;;14.55;62.26;99327.63;4995377;28;20080;-84
2022/04/06 01:47:52;;;;;;;12.35;2.30;;;;;;;14.49;62.38;99322.97;4994946;28;20030;-84
2022/04/06 01:53:15;;;;;;;8.90;2.00;;;;;;;14.54;62.91;99318.06;4974302;28;20039;-84
2022/04/06 01:55:41;;;;;;;7.10;1.35;;;;;;;14.48;63.11;99305.47;4975810;28;20027;-84
2022/04/06 01:58:07;;;;;;;6.22;1.40;;;;;;;14.58;62.37;99306.22;4975448;28;20031;-84
2022/04/06 02:00:33;;;;;;;6.95;1.48;;;;;;;14.23;63.87;99310.59;4975617;28;20117;-83
2022/04/06 02:03:00;;;;;;;12.48;2.17;;;;;;;14.51;63.41;99304.31;4974155;28;20405;-83
2022/04/06 02:05:31;;;;;;;6.97;1.75;;;;;;;14.74;63.28;99304.66;4976645;28;20023;-84
2022/04/06 02:07:56;;;;;;;11.80;1.60;;;;;;;14.31;64.31;99287.88;4975202;28;20102;-84
2022/04/06 02:10:21;;;;;;;9.60;1.35;;;;;;;14.46;64.40;99286.31;4975123;28;20113;-84
2022/04/06 02:12:47;;;;;;;8.43;1.45;;;;;;;14.33;64.50;99286.72;4974104;28;20118;-84
2022/04/06 02:15:14;;;;;;;7.03;1.70;;;;;;;14.27;65.12;99284.72;4977191;28;20027;-82
2022/04/06 02:17:40;;;;;;;5.93;1.48;;;;;;;14.34;64.71;99282.28;4975338;28;20074;-82
2022/04/06 02:20:06;;;;;;;11.27;1.65;;;;;;;14.05;65.79;99278.13;4975688;28;20019;-82
2022/04/06 02:22:31;;;;;;;9.30;1.80;;;;;;;14.22;65.38;99274.63;4977753;28;20035;-83
2022/04/06 02:24:57;;;;;;;13.80;1.50;;;;;;;14.23;65.43;99268.34;4975709;28;20046;-83
2022/04/06 02:27:22;;;;;;;7.68;1.40;;;;;;;14.28;64.97;99258.16;4973239;28;20448;-83
2022/04/06 02:29:48;;;;;;;7.63;1.27;;;;;;;14.23;65.48;99257.78;4974187;28;20037;-82
2022/04/06 02:32:13;;;;;;;9.48;1.85;;;;;;;14.31;65.10;99250.91;4975254;28;20031;-82
2022/04/06 02:34:39;;;;;;;15.73;1.90;;;;;;;14.19;65.54;99253.81;4975022;28;20049;-82
2022/04/06 02:37:06;;;;;;;9.75;1.70;;;;;;;14.13;66.02;99237.78;4976197;28;20491;-82
2022/04/06 02:39:32;;;;;;;8.30;1.75;;;;;;;14.14;65.86;99242.06;4975037;28;20027;-82
2022/04/06 02:41:57;;;;;;;10.00;1.30;;;;;;;14.28;65.20;99242.31;4974866;28;20034;-83
2022/04/06 02:44:22;;;;;;;11.57;1.55;;;;;;;14.27;65.06;99242.47;4976031;28;20031;-83
2022/04/06 02:46:48;;;;;;;8.43;1.05;;;;;;;14.27;65.54;99234.53;4974896;28;20102;-83
2022/04/06 02:49:15;;;;;;;8.38;2.03;;;;;;;14.19;65.69;99227.41;4975321;28;20062;-83
2022/04/06 02:51:40;;;;;;;9.32;2.03;;;;;;;14.31;65.12;99222.69;4975470;28;20027;-83
2022/04/06 02:54:06;;;;;;;6.18;1.30;;;;;;;14.20;65.64;99217.69;4977348;28;20569;-84
2022/04/06 02:56:32;;;;;;;9.30;1.20;;;;;;;14.22;65.86;99211.25;4974465;28;20391;-84
2022/04/06 02:58:57;;;;;;;7.45;1.63;;;;;;;14.29;65.68;99196.44;4974559;28;20031;-85
2022/04/06 03:01:23;;;;;;;11.10;2.20;;;;;;;14.07;66.34;99196.97;4974772;28;20027;-85
2022/04/06 03:03:48;;;;;;;4.40;0.90;;;;;;;14.11;66.23;99194.88;4974446;28;20126;-85
2022/04/06 03:06:13;;;;;;;6.80;1.40;;;;;;;14.14;65.96;99186.63;4974574;28;20053;-85
2022/04/06 03:08:39;;;;;;;6.55;0.85;;;;;;;14.13;66.38;99188.44;4975044;28;20034;-84
2022/04/06 03:11:04;;;;;;;7.50;1.20;;;;;;;14.08;66.36;99182.81;4990109;28;20034;-84
2022/04/06 03:13:30;;;;;;;7.28;1.23;;;;;;;13.94;66.69;99180.75;4993736;28;20088;-85
2022/04/06 03:15:56;;;;;;;13.85;1.20;;;;;;;14.04;67.09;99184.94;4992173;28;20473;-84
2022/04/06 03:18:21;;;;;;;6.05;0.90;;;;;;;14.20;66.31;99180.75;4993676;28;20031;-85
2022/04/06 03:20:47;;;;;;;6.43;1.02;;;;;;;14.22;66.69;99176.13;4993490;28;20078;-86
2022/04/06 03:23:14;;;;;;;4.13;0.90;;;;;;;14.04;67.30;99171.75;4993538;28;20109;-86
2022/04/06 03:25:39;;;;;;;5.63;0.98;;;;;;;14.08;66.54;99166.97;4979006;28;20592;-86
2022/04/06 03:28:05;;;;;;;6.78;1.17;;;;;;;13.85;67.20;99161.41;4974022;28;20097;-86
2022/04/06 03:30:30;;;;;;;10.90;1.75;;;;;;;13.95;67.79;99156.03;4973725;28;20027;-86
2022/04/06 03:32:55;;;;;;;4.88;1.00;;;;;;;14.05;67.36;99151.44;4974059;28;20035;-86
2022/04/06 03:35:21;;;;;;;3.90;0.80;;;;;;;14.19;66.74;99147.38;4973724;28;20015;-86
2022/04/06 03:37:46;;;;;;;3.60;0.90;;;;;;;14.05;67.46;99135.63;4973552;28;20027;-86
2022/04/06 03:40:13;;;;;;;5.20;0.80;;;;;;;14.24;66.71;99135.38;4974757;28;20157;-86
2022/04/06 03:42:39;;;;;;;4.75;1.10;;;;;;;14.03;67.38;99137.59;4973597;28;20031;-86
2022/04/06 03:45:05;;;;;;;6.35;0.88;;;;;;;14.19;67.11;99126.28;4973670;28;20031;-86
2022/04/06 03:47:32;;;;;;;6.72;1.00;;;;;;;14.07;67.74;99134.47;4973600;28;20019;-86
2022/04/06 03:49:59;;;;;;;5.13;1.10;;;;;;;14.09;67.65;99129.03;4973350;28;20140;-85
2022/04/06 03:52:25;;;;;;;1.52;0.55;;;;;;;13.96;68.11;99115.44;4973686;28;20062;-86
2022/04/06 03:54:51;;;;;;;5.90;1.02;;;;;;;14.10;67.39;99112.22;4974993;28;20384;-85
2022/04/06 03:57:16;;;;;;;3.38;0.60;;;;;;;13.96;67.78;99102.25;4973318;28;20121;-86
2022/04/06 03:59:41;;;;;;;5.95;0.90;;;;;;;14.07;67.53;99091.41;4973503;28;20429;-85
2022/04/06 04:02:07;;;;;;;1.63;0.50;;;;;;;13.88;68.03;99090.69;4973323;28;20074;-85
2022/04/06 04:04:32;;;;;;;5.97;0.85;;;;;;;14.23;67.22;99091.47;4973478;28;20026;-86
2022/04/06 04:06:57;;;;;;;2.83;0.90;;;;;;;14.17;67.24;99102.66;4972130;28;20023;-85
2022/04/06 04:09:23;;;;;;;5.78;0.80;;;;;;;14.04;67.83;99091.72;4974236;28;20027;-85
2022/04/06 04:11:48;;;;;;;3.50;0.88;;;;;;;13.97;68.35;99094.19;4992561;28;20468;-85
2022/04/06 04:14:14;;;;;;;2.30;0.80;;;;;;;14.04;68.07;99115.47;4993052;28;20030;-85
2022/04/06 04:16:39;;;;;;;1.50;0.80;;;;;;;13.91;68.69;99109.81;4993156;28;20117;-85
2022/04/06 04:19:05;;;;;;;2.20;0.57;;;;;;;14.13;67.79;99108.44;4992771;28;20019;-85
2022/04/06 04:21:33;;;;;;;1.92;0.60;;;;;;;13.94;68.73;99096.28;4992874;28;20054;-85
2022/04/06 04:24:03;;;;;;;2.67;0.50;;;;;;;13.74;69.84;99096.53;4992782;28;20109;-85
2022/04/06 04:26:29;;;;;;;2.50;0.47;;;;;;;13.86;69.08;99092.66;4975899;28;20118;-85
2022/04/06 04:28:55;;;;;;;1.27;0.45;;;;;;;13.99;68.79;99084.28;4973703;28;20114;-86
2022/04/06 04:31:20;;;;;;;2.88;0.38;;;;;;;14.11;68.37;99082.19;4973376;28;20451;-85
2022/04/06 04:33:46;;;;;;;0.77;0.35;;;;;;;14.15;68.25;99080.88;4973588;28;20043;-86
2022/04/06 04:36:11;;;;;;;0.82;0.30;;;;;;;14.32;68.00;99075.69;4973308;28;20027;-85
2022/04/06 04:38:36;;;;;;;4.15;0.35;;;;;;;14.25;67.85;99078.94;4973335;28;20540;-83
2022/04/06 04:41:03;;;;;;;1.23;0.20;;;;;;;14.06;68.92;99080.03;4988284;28;20057;-85
2022/04/06 04:43:28;;;;;;;0.85;0.20;;;;;;;13.93;69.27;99070.91;4991539;28;20058;-86
2022/04/06 04:45:54;;;;;;;2.53;0.30;;;;;;;14.08;68.91;99064.06;4993011;28;20061;-83
2022/04/06 04:48:19;;;;;;;0.43;0.20;;;;;;;14.26;68.30;99059.47;4991420;28;20500;-84
2022/04/06 04:50:44;;;;;;;1.15;0.30;;;;;;;14.30;68.25;99065.28;4991874;28;20034;-85
2022/04/06 04:53:10;;;;;;;1.35;0.30;;;;;;;14.25;68.19;99063.09;4996361;28;20033;-84
2022/04/06 04:55:35;;;;;;;3.13;0.73;;;;;;;14.24;67.94;99058.81;4994971;28;20480;-85
2022/04/06 04:58:01;;;;;;;2.10;0.40;;;;;;;14.34;67.77;99044.66;4996482;28;20033;-84
2022/04/06 05:00:26;;;;;;;3.65;0.28;;;;;;;14.30;68.09;99036.22;4996115;28;20481;-84
2022/04/06 05:02:52;;;;;;;4.32;0.95;;;;;;;14.32;67.55;99042.16;4996730;28;20049;-84
2022/04/06 05:05:17;;;;;;;1.80;0.28;;;;;;;14.21;68.47;99045.09;4996396;28;20028;-84
2022/04/06 05:07:42;;;;;;;4.28;0.50;;;;;;;14.32;67.98;99044.00;4996661;28;20081;-84
2022/04/06 05:10:09;;;;;;;1.98;0.32;;;;;;;14.15;68.21;99037.81;4994587;28;20412;-84
2022/04/06 05:12:35;;;;;;;1.80;0.30;;;;;;;14.01;68.64;99034.00;4996818;28;20085;-85
2022/04/06 05:15:01;;;;;;;0.70;0.22;;;;;;;14.22;68.03;99021.19;4996194;28;20030;-84
2022/04/06 05:17:29;;;;;;;0.10;0.10;;;;;;;14.34;67.88;99015.59;4996135;28;20030;-84
2022/04/06 05:19:54;;;;;;;1.52;0.40;;;;;;;14.04;68.62;99023.09;4994578;28;20105;-84
2022/04/06 05:22:20;;;;;;;1.48;0.20;;;;;;;14.28;68.23;99020.53;4995409;28;20432;-84
2022/04/06 05:24:46;;;;;;;3.85;0.25;;;;;;;14.13;68.05;99022.16;4993104;28;20026;-85
2022/04/06 05:27:11;;;;;;;0.45;0.10;;;;;;;14.06;68.67;99015.88;4981522;28;20038;-85
2022/04/06 05:29:37;;;;;;;0.73;0.20;;;;;;;14.37;67.53;99002.06;4995501;28;20033;-85
2022/04/06 05:32:02;;;;;;;0.55;0.20;;;;;;;14.46;67.26;99016.94;4980242;28;20027;-85
2022/04/06 05:34:29;;;;;;;2.47;0.30;;;;;;;14.54;67.25;99002.91;4976056;28;20109;-85
2022/04/06 05:36:54;;;;;;;0.52;0.10;;;;;;;14.58;67.08;99009.56;4976255;28;20122;-85
2022/04/06 05:39:20;;;;;;;2.95;0.43;;;;;;;14.46;67.44;99011.66;4984521;28;20532;-84
2022/04/06 05:41:45;;;;;;;2.60;0.40;;;;;;;14.42;67.31;98997.13;4975742;28;20030;-84
2022/04/06 05:44:11;;;;;;;0.88;0.30;;;;;;;14.07;67.85;98991.94;4975769;28;20031;-84
2022/04/06 05:46:36;;;;;;;3.05;0.77;;;;;;;14.13;68.00;98990.47;4988079;28;20473;-83
2022/04/06 05:49:01;;;;;;;2.70;0.80;;;;;;;14.44;67.16;98977.47;4995169;28;20057;-83
2022/04/06 05:51:27;;;;;;;2.22;0.40;;;;;;;14.32;67.82;98986.72;4992610;28;20018;-83
2022/04/06 05:53:52;;;;;;;2.50;0.30;;;;;;;14.16;67.57;98984.88;4983870;28;20472;-83
2022/04/06 05:56:18;;;;;;;3.67;1.00;;;;;;;14.35;67.33;98988.19;4994008;28;20469;-83
2022/04/06 05:58:43;;;;;;;1.83;0.52;;;;;;;14.42;67.09;98983.94;4987610;28;20029;-83
2022/04/06 06:01:09;;;;;;;2.63;0.60;;;;;;;14.48;67.04;98978.00;4980967;28;20540;-84
2022/04/06 06:03:35;;;;;;;1.95;0.57;;;;;;;14.27;67.61;98983.72;4982688;28;20027;-84
2022/04/06 06:06:01;;;;;;;3.00;0.40;;;;;;;14.33;67.41;98990.19;4985671;28;20501;-83
2022/04/06 06:08:26;;;;;;;3.97;0.70;;;;;;;14.48;67.08;98978.00;4987924;28;20037;-83
2022/04/06 06:10:51;;;;;;;2.65;0.70;;;;;;;14.54;67.06;98977.31;4987585;28;20117;-84
2022/04/06 06:13:17;;;;;;;3.95;0.52;;;;;;;14.35;67.62;98961.78;4978524;28;20362;-84
2022/04/06 06:15:42;;;;;;;3.75;0.60;;;;;;;14.37;67.54;98962.47;4979428;28;20082;-83
2022/04/06 06:18:08;;;;;;;3.42;0.40;;;;;;;14.50;67.33;98960.16;4985287;28;20045;-83
2022/04/06 06:20:34;;;;;;;4.22;0.50;;;;;;;14.20;68.05;98954.53;4987752;28;20030;-83
2022/04/06 06:22:59;;;;;;;1.17;0.50;;;;;;;14.27;68.07;98944.13;4980492;28;20035;-83
2022/04/06 06:25:25;;;;;;;1.65;0.60;;;;;;;14.43;67.68;98946.78;4981085;28;20082;-82
2022/04/06 06:27:50;;;;;;;2.50;0.52;;;;;;;14.60;67.15;98942.34;4993412;28;20027;-83
2022/04/06 06:30:15;;;;;;;3.08;0.60;;;;;;;14.66;67.46;98946.16;4986593;28;20026;-83
2022/04/06 06:32:41;;;;;;;3.13;0.85;;;;;;;14.59;67.55;98948.66;4981081;28;20038;-83
2022/04/06 06:35:08;;;;;;;3.78;0.60;;;;;;;14.43;67.78;98944.13;4977324;28;20027;-82
2022/04/06 06:37:34;;;;;;;4.07;0.90;;;;;;;14.45;68.29;98943.97;4994182;28;20153;-82
2022/04/06 06:40:00;;;;;;;6.50;0.60;;;;;;;14.18;68.33;98935.38;4994090;28;20018;-83
2022/04/06 06:42:25;;;;;;;2.58;0.68;;;;;;;14.35;68.24;98938.03;4993986;28;20049;-82
2022/04/06 06:44:51;;;;;;;4.63;0.60;;;;;;;14.43;67.87;98940.66;4993345;28;20433;-82
2022/04/06 06:47:16;;;;;;;2.92;0.60;;;;;;;14.54;67.66;98934.25;4977579;28;20022;-83
2022/04/06 06:49:46;;;;;;;2.65;0.52;;;;;;;14.50;67.53;98935.56;4994214;28;20034;-83
2022/04/06 06:52:14;;;;;;;7.28;0.95;;;;;;;14.55;67.42;98931.41;4993823;28;20113;-84
2022/04/06 06:54:40;;;;;;;4.90;0.60;;;;;;;14.46;67.06;98925.31;4993669;28;20014;-83
2022/04/06 06:57:05;;;;;;;5.15;1.52;;;;;;;14.59;67.28;98922.22;4993873;28;20033;-83
2022/04/06 06:59:31;;;;;;;3.13;0.80;;;;;;;14.46;67.57;98929.78;4993860;28;20465;-83
2022/04/06 07:01:56;;;;;;;1.27;0.50;;;;;;;14.47;66.97;98923.50;4984241;28;20047;-84
2022/04/06 07:04:22;;;;;;;5.78;0.60;;;;;;;14.71;66.40;98929.78;4977119;28;20019;-83
2022/04/06 07:06:51;;;;;;;4.60;0.60;;;;;;;14.42;67.12;98925.84;4980841;28;20073;-83
2022/04/06 07:09:17;;;;;;;3.20;0.60;;;;;;;14.81;65.72;98931.28;4978561;28;20638;-83
2022/04/06 07:11:42;;;;;;;6.00;1.30;;;;;;;14.71;66.32;98927.16;4991607;28;20035;-84
2022/04/06 07:14:07;;;;;;;3.60;0.65;;;;;;;14.61;66.27;98930.81;4992812;28;20030;-84
2022/04/06 07:16:33;;;;;;;4.90;0.82;;;;;;;14.72;65.95;98927.00;4992750;28;20030;-84
2022/04/06 07:18:59;;;;;;;3.90;0.70;;;;;;;14.79;65.10;98930.63;4974496;28;20030;-84
2022/04/06 07:21:24;;;;;;;2.72;0.77;;;;;;;14.63;65.91;98928.84;4978486;28;20030;-84
2022/04/06 07:23:50;;;;;;;5.93;0.88;;;;;;;14.80;65.59;98931.44;4992126;28;20469;-84
2022/04/06 07:26:17;;;;;;;6.10;0.70;;;;;;;14.62;65.90;98926.34;4992412;28;20035;-84
2022/04/06 07:28:45;;;;;;;3.78;0.80;;;;;;;14.37;66.44;98922.84;4987680;28;20026;-85
2022/04/06 07:31:14;;;;;;;8.93;1.25;;;;;;;14.28;66.57;98927.31;4973761;28;20081;-85
2022/04/06 07:33:40;;;;;;;6.82;0.90;;;;;;;14.21;66.85;98929.75;4989680;28;20036;-86
2022/04/06 07:36:06;;;;;;;5.78;0.90;;;;;;;14.45;65.93;98923.69;4989008;28;20026;-84
2022/04/06 07:38:31;;;;;;;10.05;1.10;;;;;;;14.51;66.10;98924.81;4986085;28;20473;-84
2022/04/06 07:40:57;;;;;;;7.28;1.63;;;;;;;14.58;65.56;98927.69;4988831;28;20109;-84
2022/04/06 07:43:23;;;;;;;9.82;2.03;;;;;;;14.57;65.21;98934.75;4982301;28;20117;-85
2022/04/06 07:45:49;;;;;;;8.35;0.98;;;;;;;14.60;64.96;98934.44;4985767;28;20141;-85
2022/04/06 07:48:14;;;;;;;4.57;0.88;;;;;;;14.76;64.81;98924.84;4992979;28;20034;-85
2022/04/06 07:50:40;;;;;;;5.32;1.27;;;;;;;14.80;65.39;98924.34;4993050;28;20453;-85
2022/04/06 07:53:05;;;;;;;6.90;1.17;;;;;;;14.66;65.47;98912.63;4983005;28;20033;-85
2022/04/06 07:55:30;;;;;;;7.93;0.95;;;;;;;14.88;64.52;98918.22;4973453;28;20035;-85
2022/04/06 07:57:56;;;;;;;7.93;1.10;;;;;;;14.93;64.84;98918.53;4973604;28;20471;-85
2022/04/06 08:00:21;;;;;;;7.53;1.80;;;;;;;14.93;64.90;98918.53;4973433;28;20050;-84
2022/04/06 08:02:49;;;;;;;8.55;1.08;;;;;;;14.91;64.51;98909.97;4973373;28;20061;-84
2022/04/06 08:05:14;;;;;;;8.65;1.23;;;;;;;14.83;64.26;98904.66;4973385;28;20042;-85
2022/04/06 08:07:43;;;;;;;10.75;1.23;;;;;;;14.61;64.84;98908.84;4981335;28;20022;-85
2022/04/06 08:10:12;;;;;;;9.02;1.50;;;;;;;14.91;64.02;98904.69;4992584;28;20029;-85
2022/04/06 08:12:38;;;;;;;8.95;1.52;;;;;;;15.01;63.94;98900.03;4992732;28;20543;-85
2022/04/06 08:15:04;;;;;;;10.18;1.42;;;;;;;14.86;64.04;98901.69;4992646;28;20026;-85
2022/04/06 08:17:37;;;;;;;12.48;1.27;;;;;;;15.27;62.85;98898.94;4992386;28;20454;-85
2022/04/06 08:20:04;;;;;;;7.00;0.90;;;;;;;15.36;63.29;98897.91;4992448;28;20420;-85
2022/04/06 08:22:31;;;;;;;8.07;1.40;;;;;;;15.37;62.76;98880.22;4990759;28;20026;-85
2022/04/06 08:24:56;;;;;;;8.95;1.40;;;;;;;15.31;62.63;98879.09;4992563;28;20023;-85
2022/04/06 08:27:21;;;;;;;11.52;1.48;;;;;;;15.26;63.50;98866.41;4992452;28;20037;-85
2022/04/06 08:29:47;;;;;;;14.25;1.92;;;;;;;15.64;62.10;98868.34;4992432;28;20030;-85
2022/04/06 08:32:14;;;;;;;11.40;1.55;;;;;;;15.85;62.04;98863.25;4992216;28;20080;-85
2022/04/06 08:34:39;;;;;;;10.55;1.48;;;;;;;15.95;61.62;98859.56;4992451;28;20100;-86
2022/04/06 08:37:04;;;;;;;11.45;1.42;;;;;;;15.78;61.87;98864.16;4990771;28;20105;-85
2022/04/06 08:39:30;;;;;;;14.57;1.83;;;;;;;16.04;60.58;98855.88;4992327;28;20038;-85
2022/04/06 08:41:55;;;;;;;9.45;1.67;;;;;;;15.91;61.29;98847.69;4992363;28;20026;-85
2022/04/06 08:44:21;;;;;;;13.57;1.85;;;;;;;16.03;60.97;98846.25;4992366;28;20093;-85
2022/04/06 08:46:50;;;;;;;8.82;1.15;;;;;;;15.93;60.94;98843.84;4977045;28;20027;-85
2022/04/06 08:49:16;;;;;;;12.02;2.13;;;;;;;16.12;60.58;98833.81;4972529;28;20027;-85
2022/04/06 08:51:45;;;;;;;14.30;1.40;;;;;;;16.15;59.69;98831.63;4972876;28;20070;-86
2022/04/06 08:54:10;;;;;;;8.55;1.90;;;;;;;15.86;60.66;98835.81;4973961;28;20577;-85
2022/04/06 08:56:36;;;;;;;10.30;1.50;;;;;;;16.17;60.26;98831.44;4955529;28;20131;-86
2022/04/06 08:59:03;;;;;;;11.98;1.95;;;;;;;16.16;60.99;98830.59;4972597;28;20081;-86
2022/04/06 09:01:33;;;;;;;10.45;1.58;;;;;;;16.24;60.06;98832.38;4972923;28;20511;-85
2022/04/06 09:04:01;;;;;;;8.43;1.23;;;;;;;16.30;59.59;98826.34;4972835;28;20499;-86
2022/04/06 09:06:29;;;;;;;8.75;1.48;;;;;;;16.25;59.22;98813.66;4972660;28;20037;-86
2022/04/06 09:08:55;;;;;;;6.55;1.55;;;;;;;16.24;59.93;98814.63;4973817;28;20034;-85
2022/04/06 09:11:20;;;;;;;6.95;1.55;;;;;;;16.18;60.33;98815.38;4972495;28;20027;-86
2022/04/06 09:13:48;;;;;;;11.88;1.40;;;;;;;16.57;59.40;98811.69;4973005;28;20078;-86
2022/04/06 09:16:15;;;;;;;12.00;2.85;;;;;;;16.58;58.28;98810.66;4972642;28;20026;-85
2022/04/06 09:18:45;;;;;;;16.00;1.65;;;;;;;16.71;59.21;98812.69;4972643;28;20548;-86
2022/04/06 09:21:13;;;;;;;12.50;1.75;;;;;;;16.64;59.06;98812.56;4972522;28;20110;-85
2022/04/06 09:23:39;;;;;;;12.38;1.42;;;;;;;16.61;59.10;98810.31;4972517;28;20030;-85
2022/04/06 09:26:06;;;;;;;11.63;1.77;;;;;;;16.38;60.15;98804.25;4990141;28;20061;-85
2022/04/06 09:28:31;;;;;;;9.55;1.60;;;;;;;16.44;60.14;98792.94;4992106;28;20026;-85
2022/04/06 09:30:57;;;;;;;17.02;2.40;;;;;;;16.52;60.61;98790.19;4991695;28;20484;-85
2022/04/06 09:33:26;;;;;;;7.30;1.63;;;;;;;16.55;60.44;98781.91;4991944;28;20113;-85
2022/04/06 09:35:52;;;;;;;4.20;1.27;;;;;;;16.50;60.61;98778.97;4992077;28;20105;-85
2022/04/06 09:38:20;;;;;;;10.60;1.52;;;;;;;15.96;60.73;98779.16;4994037;28;20114;-85
2022/04/06 09:40:45;;;;;;;12.88;2.53;;;;;;;16.28;60.41;98779.88;4995161;28;20054;-85
2022/04/06 09:43:26;;;;;;;4.82;1.38;;;;;;;16.18;61.16;98775.66;4995259;28;20081;-85
2022/04/06 09:48:55;;;;;;;9.57;1.50;;;;;;;16.49;60.07;98764.09;4995255;28;20038;-85
2022/04/06 09:51:22;;;;;;;12.85;2.13;;;;;;;16.53;59.76;98762.72;4995377;28;20026;-84
2022/04/06 09:53:49;;;;;;;8.20;1.55;;;;;;;16.62;58.95;98751.00;4993889;28;20026;-84
2022/04/06 09:56:19;;;;;;;6.78;1.50;;;;;;;16.81;59.66;98743.50;4995242;28;20015;-85
2022/04/06 09:58:45;;;;;;;9.38;1.33;;;;;;;16.70;60.34;98739.47;4995470;28;20026;-85
2022/04/06 10:01:13;;;;;;;8.73;1.33;;;;;;;17.12;58.89;98724.72;4995147;28;20516;-85
2022/04/06 10:03:43;;;;;;;9.82;1.92;;;;;;;17.22;58.51;98725.25;4995121;28;20034;-84
2022/04/06 10:06:09;;;;;;;11.45;1.73;;;;;;;17.34;57.06;98707.00;4993838;28;20455;-84
2022/04/06 10:08:36;;;;;;;5.00;1.13;;;;;;;17.31;58.03;98711.84;4993580;28;20031;-84
2022/04/06 10:11:01;;;;;;;14.07;1.75;;;;;;;17.19;58.02;98700.91;4975929;28;20030;-84
2022/04/06 10:13:27;;;;;;;8.88;1.65;;;;;;;17.77;57.49;98700.81;4975859;28;20023;-84
2022/04/06 10:15:54;;;;;;;12.93;2.55;;;;;;;17.13;58.31;98699.84;4983250;28;20018;-88
2022/04/06 10:18:19;;;;;;;9.27;1.50;;;;;;;17.48;57.94;98701.81;4996755;28;20029;-84
2022/04/06 10:20:55;;;;;;;10.93;1.65;;;;;;;17.57;58.46;98695.34;4994628;28;20018;-84
2022/04/06 10:23:45;;;;;;;7.85;1.33;;;;;;;17.41;57.78;98691.13;4994523;28;20034;-83
2022/04/06 10:26:34;;;;;;;12.25;2.17;;;;;;;17.47;58.23;98697.50;4994421;28;20037;-83
2022/04/06 10:28:59;;;;;;;9.13;3.17;;;;;;;16.99;58.21;98690.91;4975115;28;20117;-83
2022/04/06 10:31:29;;;;;;;6.72;1.40;;;;;;;16.99;58.56;98703.38;4973730;28;20106;-82
2022/04/06 10:34:22;;;;;;;7.20;1.23;;;;;;;17.17;58.35;98700.28;4978944;28;20492;-82
2022/04/06 10:37:15;;;;;;;5.93;0.80;;;;;;;17.11;57.74;98701.03;4991313;28;20050;-82
2022/04/06 10:39:57;;;;;;;3.65;0.60;;;;;;;16.58;59.60;98702.03;4993268;28;20027;-82
2022/04/06 10:42:34;;;;;;;4.40;1.58;;;;;;;17.08;59.72;98688.16;4994107;28;20018;-82
2022/04/06 10:45:01;;;;;;;6.07;0.85;;;;;;;17.43;58.94;98699.72;4993095;28;20041;-82
2022/04/06 10:47:29;;;;;;;3.70;0.73;;;;;;;18.07;57.38;98680.25;4980036;28;20516;-82
2022/04/06 10:50:15;;;;;;;6.53;1.27;;;;;;;18.06;56.57;98678.59;4975214;28;20109;-82
2022/04/06 10:52:42;;;;;;;8.60;1.30;;;;;;;18.34;55.75;98673.22;4991303;28;20030;-82
2022/04/06 10:55:19;;;;;;;2.00;0.63;;;;;;;18.13;55.46;98671.50;5013740;28;20021;-82
2022/04/06 10:58:03;;;;;;;6.90;1.15;;;;;;;18.04;55.06;98691.25;5013790;28;20017;-82
2022/04/06 11:00:30;;;;;;;6.00;1.08;;;;;;;17.38;56.43;98675.59;5013813;28;20033;-82
2022/04/06 11:03:18;;;;;;;4.40;0.70;;;;;;;17.65;55.33;98660.69;5004577;28;20117;-82
2022/04/06 11:05:45;;;;;;;6.90;1.15;;;;;;;17.45;55.57;98649.94;4993178;28;20026;-82
2022/04/06 11:11:56;;;;;;;7.18;0.90;;;;;;;17.99;53.37;98651.16;4993600;28;20555;-82
2022/04/06 11:14:24;;;;;;;5.40;0.75;;;;;;;18.46;53.42;98649.56;4989086;28;20037;-82
2022/04/06 11:16:50;;;;;;;7.32;1.02;;;;;;;18.39;53.46;98667.34;4993603;28;20473;-81
2022/04/06 11:19:16;;;;;;;9.25;1.55;;;;;;;19.51;50.75;98634.06;4993622;28;20033;-82
2022/04/06 11:21:53;;;;;;;4.65;0.80;;;;;;;20.91;48.39;98623.00;4992131;28;20022;-82
2022/04/06 11:24:31;;;;;;;7.90;0.90;;;;;;;21.50;47.72;98641.50;4993383;28;20492;-82
2022/04/06 11:26:56;;;;;;;7.30;1.40;;;;;;;20.31;48.31;98631.25;4984837;28;20027;-82
2022/04/06 11:29:26;;;;;;;7.93;0.98;;;;;;;19.95;48.35;98615.81;4976508;28;20038;-83
2022/04/06 11:32:00;;;;;;;5.32;0.85;;;;;;;19.55;48.86;98643.28;4974622;28;20037;-83
2022/04/06 11:34:36;;;;;;;6.05;1.40;;;;;;;19.13;49.60;98620.53;4974162;28;20429;-82
2022/04/06 11:37:04;;;;;;;3.83;0.63;;;;;;;19.45;49.53;98634.06;4977184;28;20034;-82
2022/04/06 11:39:33;;;;;;;6.40;0.95;;;;;;;20.24;49.21;98618.97;4993018;28;20027;-82
2022/04/06 11:42:02;;;;;;;4.93;1.13;;;;;;;20.71;46.22;98604.44;4990706;28;20029;-82